CheckWX is a tool to help pilots better visualize weather data.  It is not intended as a substitute for an official pre-flight weather briefing.

10:15:38 UTC

GVBA TAF
Rabil Airport
Rabil, Cape Verde
TAF GVBA 252300Z 2600/2706 02017KT 9999 FEW015 TEMPO 2600/2608 03007KT PROB40 TEMPO 2615/2619 36015G25KT

Jun-26@
00:00 UTC

Jun-26 @ 00:00 UTC

Jun-27@
06:00 UTC

Jun-27 @ 06:00 UTC

TAF GVBA 252300Z 2600/2706 02017KT 9999 FEW015
Wind
  • 020° at 17 KTS
Cloud Levels
  • Few at 1,500' AGL

Jun-26@
00:00 UTC

Jun-26 @ 00:00 UTC

Jun-26@
08:00 UTC

Jun-26 @ 08:00 UTC

TEMPO 2600/2608 03007KT

Expired

Wind
  • 030° at 7 KTS

Jun-26@
15:00 UTC

Jun-26 @ 15:00 UTC

Jun-26@
19:00 UTC

Jun-26 @ 19:00 UTC

PROB40 TEMPO 2615/2619 36015G25KT

Temporary - 40% Likelihood

Temporary - 40% Likelihood during this time.

Wind
  • 360° at 15 KTS
  • {Gusting to 25 KTS